Time;durP1;ratioP1;P1;durP2;ratioP2;P2;SDS_P1;SDS_P2;PMS_P1;PMS_P2;Temp;Humidity;BMP_temperature;BMP_pressure;BME280_temperature;BME280_humidity;BME280_pressure;Samples;Min_cycle;Max_cycle;Signal;HPM_P1;HPM_P2
2024/04/06 00:00:09;;;;;;;;;;;;;;;19.18;50.35;99767.28;4165210;28;19970;-67
2024/04/06 00:02:09;;;;;;;;;;;;;;;19.21;50.09;99768.78;4170361;28;20408;-68
2024/04/06 00:04:10;;;;;;;;;;;;;;;19.20;49.80;99777.94;4168183;28;19909;-69
2024/04/06 00:06:10;;;;;;;;;;;;;;;19.17;50.03;99779.19;4169436;28;19959;-68
2024/04/06 00:08:10;;;;;;;;;;;;;;;19.16;50.03;99772.09;4168743;28;19917;-68
2024/04/06 00:10:11;;;;;;;;;;;;;;;19.14;50.54;99778.75;4167241;28;19920;-67
2024/04/06 00:12:11;;;;;;;;;;;;;;;19.06;50.69;99787.09;4166458;28;19963;-67
2024/04/06 00:14:11;;;;;;;;;;;;;;;19.13;50.55;99769.78;4163839;28;19952;-67
2024/04/06 00:16:12;;;;;;;;;;;;;;;19.14;50.70;99776.88;4162965;28;19911;-67
2024/04/06 00:18:12;;;;;;;;;;;;;;;19.07;51.12;99775.22;4163394;28;19913;-67
2024/04/06 00:20:12;;;;;;;;;;;;;;;19.04;50.82;99781.88;4163101;28;19916;-67
2024/04/06 00:22:13;;;;;;;;;;;;;;;18.98;50.99;99780.00;4163720;28;19909;-68
2024/04/06 00:24:13;;;;;;;;;;;;;;;18.80;51.55;99786.78;4163790;28;20008;-67
2024/04/06 00:26:13;;;;;;;;;;;;;;;18.85;51.64;99788.88;4162553;28;20373;-67
2024/04/06 00:28:14;;;;;;;;;;;;;;;18.81;51.73;99788.47;4164070;28;19945;-67
2024/04/06 00:30:14;;;;;;;;;;;;;;;18.76;52.00;99793.69;4163400;28;19951;-66
2024/04/06 00:32:15;;;;;;;;;;;;;;;18.78;52.28;99794.31;4164177;28;19909;-66
2024/04/06 00:34:15;;;;;;;;;;;;;;;18.76;52.30;99793.69;4164234;28;19986;-67
2024/04/06 00:36:16;;;;;;;;;;;;;;;18.66;52.54;99798.66;4164588;28;20304;-66
2024/04/06 00:38:16;;;;;;;;;;;;;;;18.61;53.31;99796.56;4167869;28;19919;-68
2024/04/06 00:40:17;;;;;;;;;;;;;;;18.62;52.80;99803.63;4165326;28;19932;-67
2024/04/06 00:42:17;;;;;;;;;;;;;;;18.43;54.13;99799.81;4165955;28;19923;-67
2024/04/06 00:44:18;;;;;;;;;;;;;;;18.51;53.80;99818.59;4165327;28;19913;-67
2024/04/06 00:46:18;;;;;;;;;;;;;;;18.48;53.61;99807.31;4163561;28;19909;-67
2024/04/06 00:48:19;;;;;;;;;;;;;;;18.43;54.03;99810.63;4163410;28;20362;-67
2024/04/06 00:50:19;;;;;;;;;;;;;;;18.37;53.99;99816.88;4162973;28;19940;-67
2024/04/06 00:52:20;;;;;;;;;;;;;;;18.38;54.41;99807.72;4162003;28;19932;-67
2024/04/06 00:54:20;;;;;;;;;;;;;;;18.33;54.85;99804.75;4163262;28;19971;-67
2024/04/06 00:56:21;;;;;;;;;;;;;;;18.37;54.17;99811.44;4163226;28;19961;-67
2024/04/06 00:58:21;;;;;;;;;;;;;;;18.16;54.55;99810.53;4162966;28;19913;-67
2024/04/06 01:00:21;;;;;;;;;;;;;;;18.05;55.17;99813.78;4161995;28;19915;-67
2024/04/06 01:02:22;;;;;;;;;;;;;;;18.20;55.01;99806.38;4162935;28;19909;-67
2024/04/06 01:04:22;;;;;;;;;;;;;;;18.24;54.76;99813.06;4163079;28;19916;-67
2024/04/06 01:06:22;;;;;;;;;;;;;;;18.01;55.25;99820.66;4162977;28;19916;-67
2024/04/06 01:08:23;;;;;;;;;;;;;;;18.10;55.25;99816.75;4163006;28;19968;-67
2024/04/06 01:10:23;;;;;;;;;;;;;;;18.05;55.19;99824.59;4162974;28;20317;-67
2024/04/06 01:12:24;;;;;;;;;;;;;;;17.95;55.52;99813.31;4163203;28;19909;-67
2024/04/06 01:14:24;;;;;;;;;;;;;;;18.04;55.37;99820.25;4162929;28;20004;-66
2024/04/06 01:16:24;;;;;;;;;;;;;;;18.02;55.44;99819.63;4163137;28;20392;-68
2024/04/06 01:18:25;;;;;;;;;;;;;;;18.01;55.21;99823.34;4164573;28;19920;-66
2024/04/06 01:20:31;;;;;;;;;;;;;;;18.03;54.97;99818.56;4179482;28;19909;-68
2024/04/06 01:22:31;;;;;;;;;;;;;;;17.86;55.38;99821.53;4166484;28;19909;-67
2024/04/06 01:24:31;;;;;;;;;;;;;;;17.85;56.04;99822.59;4162803;28;19909;-66
2024/04/06 01:26:32;;;;;;;;;;;;;;;17.76;56.28;99826.47;4162652;28;19915;-67
2024/04/06 01:28:32;;;;;;;;;;;;;;;17.79;56.39;99823.38;4162480;28;20510;-67
2024/04/06 01:30:32;;;;;;;;;;;;;;;17.78;56.40;99824.41;4162308;28;19917;-67
2024/04/06 01:32:33;;;;;;;;;;;;;;;17.71;56.62;99820.81;4162831;28;19917;-67
2024/04/06 01:34:33;;;;;;;;;;;;;;;17.71;56.75;99818.13;4162698;28;20262;-67
2024/04/06 01:36:33;;;;;;;;;;;;;;;17.71;56.50;99820.81;4162836;28;19956;-68
2024/04/06 01:38:34;;;;;;;;;;;;;;;17.67;56.79;99822.25;4162750;28;19920;-67
2024/04/06 01:40:34;;;;;;;;;;;;;;;17.60;56.91;99820.34;4163117;28;19939;-67
2024/04/06 01:42:35;;;;;;;;;;;;;;;17.64;56.90;99819.94;4157347;28;19909;-67
2024/04/06 01:44:35;;;;;;;;;;;;;;;17.70;56.65;99816.44;4148026;28;20370;-67
2024/04/06 01:46:35;;;;;;;;;;;;;;;17.57;56.73;99814.50;4179273;28;19917;-67
2024/04/06 01:48:36;;;;;;;;;;;;;;;17.58;56.79;99817.00;4167712;28;19944;-67
2024/04/06 01:50:36;;;;;;;;;;;;;;;17.59;57.18;99815.97;4156118;28;20008;-67
2024/04/06 01:52:36;;;;;;;;;;;;;;;17.59;56.85;99812.44;4146138;28;20388;-67
2024/04/06 01:54:37;;;;;;;;;;;;;;;17.54;56.49;99810.31;4156687;28;19928;-67
2024/04/06 01:56:38;;;;;;;;;;;;;;;17.53;56.67;99811.34;4164007;28;19976;-67
2024/04/06 01:58:38;;;;;;;;;;;;;;;17.58;56.68;99805.34;4181054;28;19912;-67
2024/04/06 02:00:38;;;;;;;;;;;;;;;17.61;56.05;99807.69;4178114;28;19994;-67
2024/04/06 02:02:39;;;;;;;;;;;;;;;17.60;56.14;99809.53;4178966;28;19909;-67
2024/04/06 02:04:42;;;;;;;;;;;;;;;17.49;56.19;99810.06;4179018;28;19908;-67
2024/04/06 02:06:43;;;;;;;;;;;;;;;17.51;56.81;99810.72;4168625;28;19932;-67
2024/04/06 02:08:43;;;;;;;;;;;;;;;17.39;56.76;99801.44;4162277;28;19917;-67
2024/04/06 02:10:43;;;;;;;;;;;;;;;17.36;56.98;99788.34;4162287;28;20393;-68
2024/04/06 02:12:44;;;;;;;;;;;;;;;17.31;57.09;99794.34;4162646;28;19908;-67
2024/04/06 02:14:44;;;;;;;;;;;;;;;17.29;57.17;99801.81;4162383;28;20400;-67
2024/04/06 02:16:44;;;;;;;;;;;;;;;17.33;56.83;99800.41;4163021;28;19909;-69
2024/04/06 02:18:45;;;;;;;;;;;;;;;17.26;57.28;99794.94;4165314;28;19955;-68
2024/04/06 02:20:45;;;;;;;;;;;;;;;17.18;57.09;99797.78;4164705;28;19918;-67
2024/04/06 02:22:45;;;;;;;;;;;;;;;17.23;57.00;99789.91;4162642;28;19913;-67
2024/04/06 02:24:46;;;;;;;;;;;;;;;17.25;56.85;99787.84;4168684;28;19913;-67
2024/04/06 02:26:46;;;;;;;;;;;;;;;17.21;57.06;99783.84;4169496;28;19909;-67
2024/04/06 02:28:46;;;;;;;;;;;;;;;17.20;57.22;99782.19;4169250;28;19909;-67
2024/04/06 02:30:47;;;;;;;;;;;;;;;17.12;56.86;99783.19;4168347;28;19977;-68
2024/04/06 02:32:48;;;;;;;;;;;;;;;17.12;57.08;99772.38;4167306;28;19932;-68
2024/04/06 02:34:48;;;;;;;;;;;;;;;17.18;57.19;99781.56;4176758;28;19952;-68
2024/04/06 02:36:48;;;;;;;;;;;;;;;17.13;57.03;99778.59;4178808;28;19921;-67
2024/04/06 02:38:49;;;;;;;;;;;;;;;17.17;57.01;99779.91;4178741;28;19951;-68
2024/04/06 02:40:49;;;;;;;;;;;;;;;17.14;56.89;99774.88;4180405;28;19935;-68
2024/04/06 02:42:50;;;;;;;;;;;;;;;17.09;56.51;99771.94;4174190;28;20349;-68
2024/04/06 02:44:50;;;;;;;;;;;;;;;16.96;56.84;99776.16;4164492;28;19909;-67
2024/04/06 02:46:50;;;;;;;;;;;;;;;16.98;56.78;99765.16;4165620;28;19988;-68
2024/04/06 02:48:51;;;;;;;;;;;;;;;16.81;56.38;99762.69;4166219;28;20002;-67
2024/04/06 02:50:51;;;;;;;;;;;;;;;16.69;56.83;99761.53;4180262;28;20160;-70
2024/04/06 02:52:51;;;;;;;;;;;;;;;16.63;56.94;99767.72;4172834;28;20350;-67
2024/04/06 02:54:51;;;;;;;;;;;;;;;16.56;56.92;99761.41;4163605;28;19913;-67
2024/04/06 02:56:52;;;;;;;;;;;;;;;16.65;56.68;99760.25;4164649;28;19916;-67
2024/04/06 02:58:52;;;;;;;;;;;;;;;16.77;56.43;99758.69;4164992;28;19920;-68
2024/04/06 03:00:52;;;;;;;;;;;;;;;16.39;57.14;99761.63;4163728;28;19909;-68
2024/04/06 03:02:53;;;;;;;;;;;;;;;16.57;56.64;99763.09;4164273;28;19979;-67
2024/04/06 03:04:53;;;;;;;;;;;;;;;16.62;56.27;99766.03;4164745;28;19909;-68
2024/04/06 03:06:53;;;;;;;;;;;;;;;16.81;56.14;99769.97;4164706;28;20521;-67
2024/04/06 03:08:54;;;;;;;;;;;;;;;16.79;55.66;99772.03;4164598;28;19971;-68
2024/04/06 03:10:54;;;;;;;;;;;;;;;16.78;56.60;99765.78;4163591;28;20024;-68
2024/04/06 03:12:54;;;;;;;;;;;;;;;16.77;56.12;99776.78;4163140;28;19909;-67
2024/04/06 03:14:55;;;;;;;;;;;;;;;16.89;56.34;99780.66;4164308;28;19913;-67
2024/04/06 03:16:55;;;;;;;;;;;;;;;16.93;55.67;99773.00;4162899;28;19909;-68
2024/04/06 03:18:55;;;;;;;;;;;;;;;16.86;55.19;99782.91;4164125;28;19920;-68
2024/04/06 03:20:56;;;;;;;;;;;;;;;16.89;54.78;99788.75;4163587;28;19963;-67
2024/04/06 03:23:01;;;;;;;;;;;;;;;16.98;55.06;99787.63;4164113;28;19917;-67
2024/04/06 03:25:01;;;;;;;;;;;;;;;17.08;54.73;99797.25;4164368;28;19967;-68
2024/04/06 03:27:01;;;;;;;;;;;;;;;17.02;55.53;99798.00;4164654;28;20306;-68
2024/04/06 03:29:02;;;;;;;;;;;;;;;16.99;55.50;99793.84;4164283;28;20607;-68
2024/04/06 03:31:02;;;;;;;;;;;;;;;16.79;55.93;99804.41;4164819;28;19912;-68
2024/04/06 03:33:02;;;;;;;;;;;;;;;16.79;56.36;99807.13;4163237;28;19913;-67
2024/04/06 03:35:03;;;;;;;;;;;;;;;16.79;56.65;99807.13;4164653;28;20545;-68
2024/04/06 03:37:03;;;;;;;;;;;;;;;16.73;56.65;99813.25;4165371;28;20297;-67
2024/04/06 03:39:04;;;;;;;;;;;;;;;16.68;56.72;99816.53;4163635;28;19916;-67
2024/04/06 03:41:04;;;;;;;;;;;;;;;16.73;57.18;99805.16;4162943;28;20412;-67
2024/04/06 03:43:04;;;;;;;;;;;;;;;16.59;56.93;99788.84;4164118;28;20404;-67
2024/04/06 03:45:05;;;;;;;;;;;;;;;16.74;56.33;99796.03;4163944;28;19952;-67
2024/04/06 03:47:05;;;;;;;;;;;;;;;16.78;56.38;99781.16;4164278;28;19921;-67
2024/04/06 03:49:07;;;;;;;;;;;;;;;16.68;56.42;99782.31;4163121;28;20004;-67
2024/04/06 03:51:07;;;;;;;;;;;;;;;16.77;56.36;99785.69;4162389;28;19913;-67
2024/04/06 03:53:08;;;;;;;;;;;;;;;16.55;56.95;99775.94;4163708;28;19916;-68
2024/04/06 03:55:09;;;;;;;;;;;;;;;16.43;57.51;99783.69;4163599;28;19983;-67
2024/04/06 03:57:09;;;;;;;;;;;;;;;16.31;57.73;99773.38;4164073;28;19970;-68
2024/04/06 03:59:09;;;;;;;;;;;;;;;16.48;56.99;99779.34;4162475;28;20258;-67
2024/04/06 04:01:10;;;;;;;;;;;;;;;16.56;57.22;99797.31;4162118;28;19909;-67
2024/04/06 04:03:10;;;;;;;;;;;;;;;16.61;56.88;99800.28;4163086;28;19913;-67
2024/04/06 04:05:10;;;;;;;;;;;;;;;16.53;58.02;99803.94;4163769;28;19936;-68
2024/04/06 04:07:11;;;;;;;;;;;;;;;16.60;57.49;99812.09;4163603;28;20443;-68
2024/04/06 04:09:15;;;;;;;;;;;;;;;16.60;57.59;99806.72;4163367;28;19913;-68
2024/04/06 04:11:15;;;;;;;;;;;;;;;16.53;57.79;99805.81;4163808;28;19909;-67
2024/04/06 04:13:18;;;;;;;;;;;;;;;16.52;58.37;99804.94;4164013;28;20395;-67
2024/04/06 04:15:18;;;;;;;;;;;;;;;16.53;58.32;99813.91;4163642;28;19920;-67
2024/04/06 04:17:18;;;;;;;;;;;;;;;16.52;58.23;99812.22;4164745;28;19908;-68
2024/04/06 04:19:19;;;;;;;;;;;;;;;16.44;58.65;99813.16;4166375;28;19920;-68
2024/04/06 04:21:19;;;;;;;;;;;;;;;16.45;58.21;99811.28;4177347;28;19981;-68
2024/04/06 04:23:20;;;;;;;;;;;;;;;16.44;58.59;99804.22;4167984;28;19913;-69
2024/04/06 04:25:21;;;;;;;;;;;;;;;16.42;58.22;99819.78;4174979;28;20027;-69
2024/04/06 04:27:21;;;;;;;;;;;;;;;16.35;58.28;99815.13;4176967;28;20016;-67
2024/04/06 04:29:21;;;;;;;;;;;;;;;16.44;58.58;99809.59;4172569;28;20293;-67
2024/04/06 04:31:22;;;;;;;;;;;;;;;16.37;58.92;99817.66;4178075;28;19928;-72
2024/04/06 04:33:23;;;;;;;;;;;;;;;16.37;58.53;99818.47;4179227;28;19913;-73
2024/04/06 04:35:24;;;;;;;;;;;;;;;16.22;58.52;99820.34;4179240;28;19913;-70
2024/04/06 04:37:24;;;;;;;;;;;;;;;16.26;58.52;99835.13;4167637;28;19943;-68
2024/04/06 04:39:25;;;;;;;;;;;;;;;16.19;59.00;99832.34;4162959;28;20354;-67
2024/04/06 04:41:25;;;;;;;;;;;;;;;16.15;59.62;99835.63;4163058;28;20366;-67
2024/04/06 04:43:25;;;;;;;;;;;;;;;16.22;59.19;99837.34;4163200;28;19976;-67
2024/04/06 04:45:26;;;;;;;;;;;;;;;16.25;58.96;99833.44;4163067;28;19916;-67
2024/04/06 04:47:26;;;;;;;;;;;;;;;16.25;58.68;99825.34;4162929;28;20289;-67
2024/04/06 04:49:26;;;;;;;;;;;;;;;16.16;59.46;99832.72;4162274;28;19912;-67
2024/04/06 04:51:27;;;;;;;;;;;;;;;16.10;59.53;99832.63;4163026;28;20425;-67
2024/04/06 04:53:27;;;;;;;;;;;;;;;16.04;59.88;99829.66;4163040;28;20008;-66
2024/04/06 04:55:28;;;;;;;;;;;;;;;16.02;59.88;99834.41;4162689;28;19909;-67
2024/04/06 04:57:28;;;;;;;;;;;;;;;16.02;60.03;99837.09;4162907;28;20388;-67
2024/04/06 04:59:29;;;;;;;;;;;;;;;15.93;60.76;99840.03;4162253;28;20404;-67
2024/04/06 05:01:29;;;;;;;;;;;;;;;15.99;60.24;99842.84;4168607;28;19951;-67
2024/04/06 05:03:30;;;;;;;;;;;;;;;15.94;60.95;99845.28;4169572;28;19909;-67
2024/04/06 05:05:30;;;;;;;;;;;;;;;15.77;61.63;99849.13;4168272;28;19917;-67
2024/04/06 05:12:48;;;;;;;;;;;;;;;15.91;61.49;99853.72;4171484;28;19971;-67
2024/04/06 05:15:17;;;;;;;;;;;;;;;15.88;61.47;99852.25;4170503;28;19912;-67
2024/04/06 05:17:18;;;;;;;;;;;;;;;15.86;61.42;99853.44;4171913;28;19920;-67
2024/04/06 05:19:18;;;;;;;;;;;;;;;15.88;61.55;99854.94;4171135;28;19909;-68
2024/04/06 05:21:19;;;;;;;;;;;;;;;15.87;61.48;99857.81;4172010;28;19944;-68
2024/04/06 05:23:20;;;;;;;;;;;;;;;15.81;61.32;99859.34;4168399;28;19915;-67
2024/04/06 05:25:20;;;;;;;;;;;;;;;15.75;61.71;99863.63;4165601;28;19916;-67
2024/04/06 05:27:20;;;;;;;;;;;;;;;15.69;62.24;99860.81;4164248;28;20301;-67
2024/04/06 05:29:20;;;;;;;;;;;;;;;15.79;61.94;99863.22;4163748;28;19948;-67
2024/04/06 05:31:22;;;;;;;;;;;;;;;15.73;62.25;99873.75;4163108;28;20461;-67
2024/04/06 05:33:22;;;;;;;;;;;;;;;15.56;63.38;99864.13;4164645;28;19995;-67
2024/04/06 05:35:22;;;;;;;;;;;;;;;15.62;62.62;99878.75;4164600;28;19965;-67
2024/04/06 05:37:23;;;;;;;;;;;;;;;15.63;63.07;99880.41;4164226;28;19909;-67
2024/04/06 05:39:23;;;;;;;;;;;;;;;15.67;63.03;99874.47;4163976;28;19917;-67
2024/04/06 05:41:24;;;;;;;;;;;;;;;15.80;62.40;99873.00;4165220;28;19909;-67
2024/04/06 05:43:24;;;;;;;;;;;;;;;15.62;63.38;99876.88;4166526;28;19909;-67
2024/04/06 05:45:24;;;;;;;;;;;;;;;15.78;62.47;99883.13;4166115;28;20438;-67
2024/04/06 05:47:27;;;;;;;;;;;;;;;15.67;63.65;99884.41;4168588;28;19913;-67
2024/04/06 05:49:27;;;;;;;;;;;;;;;15.49;64.04;99884.75;4167406;28;19917;-68
2024/04/06 05:51:28;;;;;;;;;;;;;;;15.47;64.34;99876.00;4168174;28;19954;-67
2024/04/06 05:53:28;;;;;;;;;;;;;;;15.40;64.23;99886.66;4163566;28;19940;-67
2024/04/06 05:55:28;;;;;;;;;;;;;;;15.42;64.25;99884.63;4164127;28;19913;-67
2024/04/06 05:57:29;;;;;;;;;;;;;;;15.50;63.75;99881.84;4163901;28;19909;-67
2024/04/06 05:59:29;;;;;;;;;;;;;;;15.59;63.67;99883.47;4162704;28;19909;-67
2024/04/06 06:01:29;;;;;;;;;;;;;;;15.70;63.15;99887.56;4164083;28;19909;-67
2024/04/06 06:03:30;;;;;;;;;;;;;;;15.86;62.33;99885.78;4163979;28;19940;-67
2024/04/06 06:05:30;;;;;;;;;;;;;;;15.84;62.55;99877.03;4163985;28;19952;-67
2024/04/06 06:07:31;;;;;;;;;;;;;;;15.98;62.14;99878.91;4163247;28;19909;-67
2024/04/06 06:09:32;;;;;;;;;;;;;;;16.09;61.10;99879.47;4161507;28;20292;-68
2024/04/06 06:11:32;;;;;;;;;;;;;;;16.18;60.98;99872.97;4163614;28;19944;-67
2024/04/06 06:13:32;;;;;;;;;;;;;;;16.24;60.64;99871.41;4164009;28;19917;-68
2024/04/06 06:15:33;;;;;;;;;;;;;;;16.20;61.00;99876.34;4167181;28;19919;-67
2024/04/06 06:17:33;;;;;;;;;;;;;;;16.34;60.60;99877.34;4166868;28;19916;-67
2024/04/06 06:19:33;;;;;;;;;;;;;;;16.42;60.15;99879.13;4165938;28;20153;-68
2024/04/06 06:21:34;;;;;;;;;;;;;;;16.51;59.53;99878.00;4166725;28;19913;-67
2024/04/06 06:23:34;;;;;;;;;;;;;;;16.63;59.29;99870.25;4166968;28;19913;-67
2024/04/06 06:25:34;;;;;;;;;;;;;;;16.72;58.57;99873.69;4165583;28;19983;-67
2024/04/06 06:27:35;;;;;;;;;;;;;;;16.75;58.84;99865.19;4167122;28;19909;-67
2024/04/06 06:29:35;;;;;;;;;;;;;;;16.75;58.59;99866.03;4165950;28;19999;-68
2024/04/06 06:31:35;;;;;;;;;;;;;;;16.91;58.22;99870.34;4166890;28;19967;-67
2024/04/06 06:33:36;;;;;;;;;;;;;;;17.05;57.69;99865.97;4166686;28;20266;-67
2024/04/06 06:35:36;;;;;;;;;;;;;;;17.12;57.64;99866.91;4166382;28;20392;-67
2024/04/06 06:37:37;;;;;;;;;;;;;;;17.20;57.64;99868.63;4167003;28;19935;-67
2024/04/06 06:39:38;;;;;;;;;;;;;;;17.25;56.99;99863.50;4165799;28;19909;-67
2024/04/06 06:41:38;;;;;;;;;;;;;;;17.28;57.05;99875.75;4166455;28;19909;-68
2024/04/06 06:43:38;;;;;;;;;;;;;;;17.48;56.62;99877.81;4166456;28;19916;-67
2024/04/06 06:45:39;;;;;;;;;;;;;;;17.54;56.30;99875.19;4166141;28;19909;-67
2024/04/06 06:47:40;;;;;;;;;;;;;;;17.60;56.02;99877.09;4166075;28;19913;-67
2024/04/06 06:49:41;;;;;;;;;;;;;;;17.65;55.86;99872.97;4165274;28;19913;-68
2024/04/06 06:51:41;;;;;;;;;;;;;;;17.76;55.61;99878.69;4164863;28;19916;-67
2024/04/06 06:53:42;;;;;;;;;;;;;;;17.86;54.86;99872.09;4166049;28;19909;-68
2024/04/06 06:55:42;;;;;;;;;;;;;;;18.00;54.57;99876.59;4166569;28;19909;-67
2024/04/06 06:57:43;;;;;;;;;;;;;;;18.08;54.46;99889.13;4166315;28;19908;-68
2024/04/06 06:59:43;;;;;;;;;;;;;;;18.20;54.51;99892.09;4165974;28;20062;-68
2024/04/06 07:01:43;;;;;;;;;;;;;;;18.24;54.65;99894.22;4166414;28;20003;-67
2024/04/06 07:03:43;;;;;;;;;;;;;;;18.30;54.77;99889.88;4166095;28;19961;-68
2024/04/06 07:05:44;;;;;;;;;;;;;;;18.44;54.42;99885.38;4163823;28;19956;-67
2024/04/06 07:08:11;;;;;;;;;;;;;;;18.51;53.71;99883.56;4166037;28;19916;-68
2024/04/06 07:10:11;;;;;;;;;;;;;;;18.27;53.58;99881.34;4164868;28;19916;-67
2024/04/06 07:14:49;;;;;;;;;;;;;;;18.61;52.84;99887.78;4165755;28;19920;-68
2024/04/06 07:16:49;;;;;;;;;;;;;;;18.63;52.73;99886.53;4164597;28;20277;-67
2024/04/06 07:18:50;;;;;;;;;;;;;;;18.60;52.69;99886.91;4165496;28;20440;-67
2024/04/06 07:20:50;;;;;;;;;;;;;;;18.78;52.61;99882.81;4164801;28;19972;-68
2024/04/06 07:22:50;;;;;;;;;;;;;;;18.99;52.15;99879.16;4165203;28;19909;-68
2024/04/06 07:24:51;;;;;;;;;;;;;;;19.09;52.05;99890.44;4165289;28;19913;-67
2024/04/06 07:26:51;;;;;;;;;;;;;;;19.20;51.88;99880.91;4165325;28;19916;-68
2024/04/06 07:28:51;;;;;;;;;;;;;;;19.07;51.93;99887.13;4166327;28;19924;-67
2024/04/06 07:30:52;;;;;;;;;;;;;;;19.12;51.63;99891.94;4165549;28;20333;-68
2024/04/06 07:32:52;;;;;;;;;;;;;;;19.37;51.19;99892.16;4165169;28;19920;-68
2024/04/06 07:34:52;;;;;;;;;;;;;;;19.29;51.34;99895.06;4164867;28;20384;-68
2024/04/06 07:36:53;;;;;;;;;;;;;;;19.42;51.27;99900.53;4164934;28;19967;-67
2024/04/06 07:38:53;;;;;;;;;;;;;;;19.66;50.65;99897.41;4164900;28;19956;-67
2024/04/06 07:40:57;;;;;;;;;;;;;;;19.64;50.75;99900.34;4164067;28;19913;-67
2024/04/06 07:42:58;;;;;;;;;;;;;;;19.85;50.01;99898.44;4164830;28;19916;-67
2024/04/06 07:44:59;;;;;;;;;;;;;;;20.10;49.58;99890.50;4164759;28;20365;-68
2024/04/06 07:46:59;;;;;;;;;;;;;;;20.26;49.34;99895.47;4164515;28;19955;-68
2024/04/06 07:49:01;;;;;;;;;;;;;;;20.61;48.72;99885.38;4164485;28;19952;-68
2024/04/06 07:51:01;;;;;;;;;;;;;;;20.77;48.30;99889.53;4164943;28;19913;-68
2024/04/06 07:53:01;;;;;;;;;;;;;;;21.02;46.82;99886.88;4164709;28;19917;-68
2024/04/06 07:55:02;;;;;;;;;;;;;;;20.86;46.81;99885.50;4164710;28;19913;-67
2024/04/06 07:57:03;;;;;;;;;;;;;;;21.02;45.45;99882.28;4165450;28;20342;-67
2024/04/06 07:59:03;;;;;;;;;;;;;;;21.18;44.32;99877.38;4164930;28;19916;-67
2024/04/06 08:01:07;;;;;;;;;;;;;;;21.51;43.46;99879.84;4166583;28;20284;-67
2024/04/06 08:03:08;;;;;;;;;;;;;;;21.69;42.23;99874.72;4163712;28;20365;-67
2024/04/06 08:05:09;;;;;;;;;;;;;;;21.93;41.15;99873.88;4155751;28;19921;-67
2024/04/06 08:07:10;;;;;;;;;;;;;;;22.09;41.77;99875.19;4158130;28;20500;-67
2024/04/06 08:09:10;;;;;;;;;;;;;;;22.16;40.84;99879.72;4158303;28;20012;-68
2024/04/06 08:11:11;;;;;;;;;;;;;;;22.22;41.10;99884.28;4157560;28;19964;-68
2024/04/06 08:13:12;;;;;;;;;;;;;;;21.94;41.03;99885.59;4160924;28;19948;-68
2024/04/06 08:15:16;;;;;;;;;;;;;;;21.84;40.83;99891.53;4161221;28;19981;-67
2024/04/06 08:17:16;;;;;;;;;;;;;;;22.09;40.57;99891.53;4168954;28;19927;-67
2024/04/06 08:19:17;;;;;;;;;;;;;;;22.38;40.37;99885.56;4166553;28;19940;-67
2024/04/06 08:21:21;;;;;;;;;;;;;;;22.24;40.67;99879.44;4152218;28;20394;-68
2024/04/06 08:23:21;;;;;;;;;;;;;;;22.42;40.36;99873.19;4156085;28;19920;-67
2024/04/06 08:25:23;;;;;;;;;;;;;;;22.38;40.24;99872.78;4166940;28;19912;-68
2024/04/06 08:27:25;;;;;;;;;;;;;;;22.64;39.26;99859.09;4164069;28;19909;-68
2024/04/06 08:29:25;;;;;;;;;;;;;;;22.60;39.60;99856.00;4162639;28;19913;-68
2024/04/06 08:31:27;;;;;;;;;;;;;;;22.93;38.95;99852.00;4163671;28;19979;-68
2024/04/06 08:33:27;;;;;;;;;;;;;;;22.94;39.09;99850.13;4163577;28;19936;-68
2024/04/06 08:35:28;;;;;;;;;;;;;;;22.96;39.22;99854.28;4163579;28;19913;-68
2024/04/06 08:37:28;;;;;;;;;;;;;;;23.13;38.52;99857.19;4162704;28;19948;-68
2024/04/06 08:39:30;;;;;;;;;;;;;;;23.43;38.34;99842.66;4162685;28;20326;-68
2024/04/06 08:41:30;;;;;;;;;;;;;;;23.74;37.99;99851.59;4163437;28;19988;-68
2024/04/06 08:43:34;;;;;;;;;;;;;;;23.43;38.20;99842.66;4163490;28;20528;-68
2024/04/06 08:45:35;;;;;;;;;;;;;;;23.46;38.04;99841.41;4162880;28;19919;-69
2024/04/06 08:47:35;;;;;;;;;;;;;;;23.75;37.40;99833.34;4163401;28;19909;-70
2024/04/06 08:49:37;;;;;;;;;;;;;;;24.37;36.45;99841.00;4162529;28;19909;-70
2024/04/06 08:51:39;;;;;;;;;;;;;;;24.20;37.00;99837.34;4163254;28;19917;-70
2024/04/06 08:53:40;;;;;;;;;;;;;;;24.42;36.64;99830.19;4163186;28;19909;-70
2024/04/06 08:55:41;;;;;;;;;;;;;;;24.08;36.87;99829.19;4163205;28;19911;-69
2024/04/06 08:57:41;;;;;;;;;;;;;;;24.55;36.19;99823.63;4163295;28;19913;-70
2024/04/06 08:59:42;;;;;;;;;;;;;;;24.42;36.14;99819.28;4162428;28;19912;-67
2024/04/06 09:01:42;;;;;;;;;;;;;;;24.49;36.25;99821.88;4163158;28;20281;-69
2024/04/06 09:03:42;;;;;;;;;;;;;;;24.60;35.66;99828.34;4163208;28;19963;-69
2024/04/06 09:05:43;;;;;;;;;;;;;;;24.72;34.94;99820.97;4163166;28;20285;-69
2024/04/06 09:07:47;;;;;;;;;;;;;;;24.85;34.75;99821.72;4161954;28;19909;-67
2024/04/06 09:09:47;;;;;;;;;;;;;;;25.37;34.27;99816.09;4162642;28;19912;-67
2024/04/06 09:11:47;;;;;;;;;;;;;;;25.41;34.52;99819.19;4163038;28;19916;-69
2024/04/06 09:13:48;;;;;;;;;;;;;;;25.34;34.18;99827.53;4163069;28;19909;-67
2024/04/06 09:15:48;;;;;;;;;;;;;;;25.82;33.77;99824.47;4162888;28;19920;-67
2024/04/06 09:17:49;;;;;;;;;;;;;;;26.22;32.67;99812.44;4161867;28;19956;-67
2024/04/06 09:19:49;;;;;;;;;;;;;;;26.35;32.54;99815.91;4162709;28;20353;-67
2024/04/06 09:21:49;;;;;;;;;;;;;;;25.70;32.27;99814.44;4162956;28;19913;-68
2024/04/06 09:23:50;;;;;;;;;;;;;;;25.82;32.29;99803.41;4163483;28;20381;-67
2024/04/06 09:26:00;;;;;;;;;;;;;;;25.69;32.40;99810.03;4163369;28;19999;-68
2024/04/06 09:28:03;;;;;;;;;;;;;;;25.76;32.12;99798.09;4163251;28;20516;-68
2024/04/06 09:30:05;;;;;;;;;;;;;;;25.97;31.65;99800.06;4163428;28;19912;-67
2024/04/06 09:32:10;;;;;;;;;;;;;;;26.27;30.87;99787.03;4163447;28;19913;-68
2024/04/06 09:34:10;;;;;;;;;;;;;;;26.84;30.34;99782.19;4162933;28;19937;-68
2024/04/06 09:36:11;;;;;;;;;;;;;;;27.03;29.78;99779.88;4162846;28;19913;-68
2024/04/06 09:38:14;;;;;;;;;;;;;;;27.39;29.57;99780.19;4162959;28;19913;-68
2024/04/06 09:40:15;;;;;;;;;;;;;;;27.80;29.02;99772.22;4162217;28;19916;-68
2024/04/06 09:42:16;;;;;;;;;;;;;;;27.81;28.49;99775.81;4163168;28;20281;-68
2024/04/06 09:44:17;;;;;;;;;;;;;;;28.12;28.34;99774.06;4162793;28;20417;-68
2024/04/06 09:46:17;;;;;;;;;;;;;;;28.32;28.84;99778.00;4162911;28;20507;-68
2024/04/06 09:48:18;;;;;;;;;;;;;;;28.46;27.97;99776.38;4163066;28;19913;-67
2024/04/06 09:50:19;;;;;;;;;;;;;;;28.63;28.05;99780.81;4165526;28;19952;-68
2024/04/06 09:52:20;;;;;;;;;;;;;;;28.63;27.89;99780.81;4166072;28;19913;-68
2024/04/06 09:54:21;;;;;;;;;;;;;;;28.83;27.57;99784.72;4166172;28;19940;-68
2024/04/06 09:56:21;;;;;;;;;;;;;;;28.86;27.98;99773.19;4166112;28;20644;-68
2024/04/06 09:58:28;;;;;;;;;;;;;;;28.71;28.06;99779.50;4165988;28;19909;-68
2024/04/06 10:00:28;;;;;;;;;;;;;;;29.11;27.75;99767.69;4165421;28;19944;-68
2024/04/06 10:02:32;;;;;;;;;;;;;;;29.22;27.45;99771.28;4165964;28;19909;-68
2024/04/06 10:04:37;;;;;;;;;;;;;;;29.09;27.55;99766.31;4166087;28;20330;-68
2024/04/06 10:06:39;;;;;;;;;;;;;;;29.45;27.37;99771.00;4165835;28;19913;-68
2024/04/06 10:08:48;;;;;;;;;;;;;;;29.69;27.00;99769.31;4164874;28;19917;-68
2024/04/06 10:10:49;;;;;;;;;;;;;;;29.96;26.94;99768.16;4165116;28;19967;-68
2024/04/06 10:12:50;;;;;;;;;;;;;;;30.05;26.34;99754.63;4165841;28;19909;-68
2024/04/06 10:14:51;;;;;;;;;;;;;;;30.43;25.52;99754.16;4165705;28;19964;-68
2024/04/06 10:16:51;;;;;;;;;;;;;;;29.26;26.45;99755.03;4164534;28;19909;-68
2024/04/06 10:18:51;;;;;;;;;;;;;;;28.98;26.67;99762.75;4165869;28;19941;-68
2024/04/06 10:20:53;;;;;;;;;;;;;;;28.84;27.13;99758.88;4164868;28;19918;-68
2024/04/06 10:22:55;;;;;;;;;;;;;;;29.16;26.58;99755.03;4165676;28;19909;-70
2024/04/06 10:25:00;;;;;;;;;;;;;;;29.91;25.85;99759.88;4164815;28;19955;-68
2024/04/06 10:27:01;;;;;;;;;;;;;;;30.02;25.57;99750.50;4165539;28;19910;-68
2024/04/06 10:29:02;;;;;;;;;;;;;;;29.57;26.13;99755.84;4165586;28;19909;-68
2024/04/06 10:31:03;;;;;;;;;;;;;;;30.29;25.55;99754.78;4165489;28;20428;-68
2024/04/06 10:33:03;;;;;;;;;;;;;;;30.79;25.02;99751.19;4165528;28;19909;-68
2024/04/06 10:35:04;;;;;;;;;;;;;;;31.05;24.27;99743.53;4165291;28;19916;-68
2024/04/06 10:37:04;;;;;;;;;;;;;;;31.68;23.51;99732.75;4165851;28;20797;-68